Time;durP1;ratioP1;P1;durP2;ratioP2;P2;SDS_P1;SDS_P2;PMS_P1;PMS_P2;Temp;Humidity;BMP_temperature;BMP_pressure;BME280_temperature;BME280_humidity;BME280_pressure;Samples;Min_cycle;Max_cycle;Signal;HPM_P1;HPM_P2
2022/09/17 00:00:48;;;;;;;12.05;7.03;;;;;;;9.48;100.00;97060.44;1711060;83;21584;-86
2022/09/17 00:03:16;;;;;;;10.28;7.00;;;;;;;9.41;100.00;97058.14;1710888;83;21061;-88
2022/09/17 00:05:42;;;;;;;8.65;6.22;;;;;;;9.33;100.00;97058.25;1711061;83;20914;-88
2022/09/17 00:08:11;;;;;;;11.48;6.78;;;;;;;9.35;100.00;97066.06;1711000;83;21024;-86
2022/09/17 00:10:39;;;;;;;9.55;5.15;;;;;;;9.35;100.00;97061.20;1711037;83;21009;-86
2022/09/17 00:13:05;;;;;;;12.43;7.10;;;;;;;9.35;100.00;97062.02;1711195;83;21021;-86
2022/09/17 00:15:31;;;;;;;12.70;5.75;;;;;;;9.36;100.00;97064.16;1711044;83;21148;-86
2022/09/17 00:17:57;;;;;;;10.90;5.95;;;;;;;9.36;100.00;97070.38;1710922;83;21592;-87
2022/09/17 00:20:25;;;;;;;10.18;6.12;;;;;;;9.32;100.00;97076.93;1710949;83;21118;-86
2022/09/17 00:22:51;;;;;;;8.75;5.72;;;;;;;9.30;100.00;97074.24;1710947;83;21030;-86
2022/09/17 00:25:18;;;;;;;10.48;5.78;;;;;;;9.28;100.00;97076.45;1711082;83;21633;-88
2022/09/17 00:27:44;;;;;;;6.58;5.20;;;;;;;9.25;100.00;97080.55;1722422;83;21053;-85
2022/09/17 00:30:11;;;;;;;11.63;6.20;;;;;;;9.23;100.00;97074.64;1722661;83;21581;-86
2022/09/17 00:32:37;;;;;;;9.13;5.58;;;;;;;9.20;100.00;97086.56;1722389;83;21099;-87
2022/09/17 00:35:04;;;;;;;14.30;6.50;;;;;;;9.21;100.00;97089.52;1722248;83;20975;-88
2022/09/17 00:37:30;;;;;;;8.00;6.08;;;;;;;9.25;100.00;97091.91;1722286;83;21014;-88
2022/09/17 00:39:56;;;;;;;10.63;5.75;;;;;;;9.29;100.00;97092.37;1722611;83;20971;-86
2022/09/17 00:42:22;;;;;;;12.23;5.97;;;;;;;9.29;100.00;97092.37;1722406;83;21695;-86
2022/09/17 00:44:54;;;;;;;9.73;6.33;;;;;;;9.25;100.00;97084.61;1722672;83;21259;-86
2022/09/17 00:47:31;;;;;;;8.98;5.80;;;;;;;9.20;100.00;97091.42;1722255;83;21003;-88
2022/09/17 00:50:05;;;;;;;8.78;5.70;;;;;;;9.11;100.00;97081.57;1722659;83;21026;-86
2022/09/17 00:52:41;;;;;;;9.93;6.78;;;;;;;9.12;100.00;97077.22;1723409;83;21033;-88
2022/09/17 00:55:28;;;;;;;7.20;5.25;;;;;;;9.08;100.00;97076.76;1722764;83;21435;-88
2022/09/17 00:57:57;;;;;;;10.55;6.17;;;;;;;9.04;100.00;97072.47;1702400;83;21142;-88
2022/09/17 01:00:23;;;;;;;10.68;6.58;;;;;;;8.99;100.00;97070.66;1722474;83;21062;-86
2022/09/17 01:02:52;;;;;;;8.55;5.47;;;;;;;8.96;100.00;97073.92;1722324;83;21475;-86
2022/09/17 01:05:23;;;;;;;10.68;5.62;;;;;;;8.89;100.00;97076.22;1696204;83;21458;-88
2022/09/17 01:08:03;;;;;;;11.50;5.20;;;;;;;8.86;100.00;97071.92;1721528;83;21498;-86
2022/09/17 01:10:56;;;;;;;12.20;7.25;;;;;;;8.80;100.00;97072.53;1722132;83;21185;-86
2022/09/17 01:14:02;;;;;;;9.50;5.78;;;;;;;8.75;100.00;97074.77;1722220;83;20987;-88
2022/09/17 01:16:42;;;;;;;8.35;4.62;;;;;;;8.74;100.00;97083.16;1722606;83;21006;-88
2022/09/17 01:19:36;;;;;;;7.50;5.55;;;;;;;8.68;100.00;97081.06;1721711;83;21451;-85
2022/09/17 01:22:13;;;;;;;8.95;5.30;;;;;;;8.67;100.00;97077.31;1722433;83;21423;-87
2022/09/17 01:24:58;;;;;;;8.93;5.10;;;;;;;8.67;100.00;97077.31;1722602;83;21868;-88
2022/09/17 01:28:06;;;;;;;7.75;5.40;;;;;;;8.65;100.00;97080.86;1707476;82;21029;-86
2022/09/17 01:30:45;;;;;;;12.53;6.45;;;;;;;8.58;100.00;97082.55;1683243;85;21058;-88
2022/09/17 01:33:20;;;;;;;8.90;6.10;;;;;;;8.52;100.00;97077.50;1677558;83;21101;-85
2022/09/17 01:36:44;;;;;;;10.60;6.42;;;;;;;8.49;100.00;97076.19;1708301;82;21069;-88
2022/09/17 01:39:21;;;;;;;11.43;5.95;;;;;;;8.43;100.00;97082.73;1726586;82;21060;-85
2022/09/17 01:41:55;;;;;;;11.30;5.90;;;;;;;8.41;100.00;97088.97;1726707;83;21021;-86
2022/09/17 01:44:41;;;;;;;7.45;5.65;;;;;;;8.38;100.00;97089.02;1726866;83;21010;-85
2022/09/17 01:47:15;;;;;;;10.48;6.75;;;;;;;8.35;100.00;97088.77;1726656;81;21010;-88
2022/09/17 01:49:40;;;;;;;8.40;5.60;;;;;;;8.33;100.00;97094.97;1726879;82;21049;-88
2022/09/17 01:52:08;;;;;;;10.00;5.70;;;;;;;8.28;100.00;97090.42;1726756;83;21156;-88
2022/09/17 01:54:49;;;;;;;7.00;5.05;;;;;;;8.26;100.00;97090.45;1726796;83;21314;-88
2022/09/17 01:57:20;;;;;;;8.53;5.97;;;;;;;8.20;100.00;97087.83;1702719;83;21144;-86
2022/09/17 01:59:54;;;;;;;10.45;6.30;;;;;;;8.19;100.00;97087.55;1726642;83;21013;-86
2022/09/17 02:02:37;;;;;;;8.73;5.50;;;;;;;8.21;100.00;97087.28;1726712;83;21532;-86
2022/09/17 02:05:17;;;;;;;12.15;6.30;;;;;;;8.17;100.00;97090.28;1726885;82;21398;-88
2022/09/17 02:07:53;;;;;;;10.23;6.80;;;;;;;8.14;100.00;97084.12;1725900;83;21002;-86
2022/09/17 02:10:22;;;;;;;13.00;6.90;;;;;;;8.09;100.00;97087.66;1726757;83;21056;-88
2022/09/17 02:12:56;;;;;;;8.90;6.12;;;;;;;8.08;100.00;97091.45;1726662;83;21018;-86
2022/09/17 02:15:27;;;;;;;9.03;5.62;;;;;;;8.05;100.00;97093.38;1726190;82;21100;-87
2022/09/17 02:18:13;;;;;;;10.10;5.85;;;;;;;8.05;100.00;97092.03;1726468;83;21496;-87
2022/09/17 02:20:47;;;;;;;7.75;5.80;;;;;;;8.03;100.00;97095.57;1726764;82;21038;-87
2022/09/17 02:23:17;;;;;;;12.68;6.80;;;;;;;8.05;100.00;97100.67;1726112;83;21076;-86
2022/09/17 02:25:52;;;;;;;11.28;5.72;;;;;;;8.05;100.00;97107.42;1726902;83;21449;-88
2022/09/17 02:28:38;;;;;;;11.18;7.12;;;;;;;8.03;100.00;97094.22;1724111;83;21080;-87
2022/09/17 02:31:04;;;;;;;12.73;6.08;;;;;;;7.99;100.00;97103.16;1722867;83;22121;-86
2022/09/17 02:33:30;;;;;;;8.60;6.08;;;;;;;7.92;100.00;97111.58;1726567;83;20961;-88
2022/09/17 02:35:56;;;;;;;11.40;5.60;;;;;;;7.83;100.00;97103.84;1726581;81;21439;-87
2022/09/17 02:38:24;;;;;;;23.85;7.78;;;;;;;7.76;100.00;97095.27;1726749;83;20897;-85
2022/09/17 02:40:56;;;;;;;9.25;6.12;;;;;;;7.77;100.00;97096.33;1725887;83;21049;-87
2022/09/17 02:43:27;;;;;;;11.28;5.85;;;;;;;7.77;100.00;97094.17;1722536;83;21080;-86
2022/09/17 02:46:23;;;;;;;15.18;5.67;;;;;;;7.74;100.00;97084.77;1726572;83;21056;-88
2022/09/17 02:49:07;;;;;;;9.78;5.72;;;;;;;7.74;100.00;97080.73;1726742;83;21465;-88
2022/09/17 02:51:50;;;;;;;12.43;6.17;;;;;;;7.77;100.00;97080.14;1726727;83;22324;-88
2022/09/17 02:54:30;;;;;;;9.08;5.65;;;;;;;7.77;100.00;97081.50;1726414;83;21001;-85
2022/09/17 02:57:25;;;;;;;13.80;7.15;;;;;;;7.74;100.00;97078.03;1726593;83;21525;-87
2022/09/17 03:00:15;;;;;;;15.78;6.40;;;;;;;7.74;100.00;97079.92;1727113;83;21020;-85
2022/09/17 03:03:09;;;;;;;12.80;6.17;;;;;;;7.70;100.00;97077.55;1726453;81;21029;-88
2022/09/17 03:05:36;;;;;;;13.70;6.00;;;;;;;7.70;100.00;97074.30;1726880;83;21032;-88
2022/09/17 03:08:02;;;;;;;10.53;6.80;;;;;;;7.73;100.00;97072.38;1726425;83;22325;-86
2022/09/17 03:10:32;;;;;;;11.00;6.92;;;;;;;7.74;100.00;97069.14;1698042;83;21164;-85
2022/09/17 03:12:56;;;;;;;11.78;6.28;;;;;;;7.73;100.00;97058.09;1726011;83;21088;-85
2022/09/17 03:15:22;;;;;;;9.83;7.08;;;;;;;7.72;100.00;97055.14;1726824;83;20968;-86
2022/09/17 03:17:48;;;;;;;8.75;6.45;;;;;;;7.70;100.00;97057.33;1726423;83;20890;-88
2022/09/17 03:20:14;;;;;;;13.13;6.42;;;;;;;7.69;100.00;97053.83;1726731;83;21008;-86
2022/09/17 03:22:41;;;;;;;8.35;5.83;;;;;;;7.63;100.00;97047.67;1726537;83;21249;-86
2022/09/17 03:25:08;;;;;;;8.10;5.45;;;;;;;7.55;100.00;97048.83;1726699;83;21056;-85
2022/09/17 03:27:33;;;;;;;12.78;6.17;;;;;;;7.50;100.00;97051.00;1721247;83;21077;-87
2022/09/17 03:30:00;;;;;;;13.38;6.60;;;;;;;7.45;100.00;97053.77;1694013;83;20902;-88
2022/09/17 03:32:26;;;;;;;9.68;5.42;;;;;;;7.47;100.00;97049.44;1720878;81;22228;-85
2022/09/17 03:34:53;;;;;;;8.98;6.00;;;;;;;7.47;100.00;97049.44;1721047;83;21838;-88
2022/09/17 03:37:20;;;;;;;8.08;5.50;;;;;;;7.48;100.00;97041.60;1720694;83;21439;-85
2022/09/17 03:39:46;;;;;;;9.95;5.55;;;;;;;7.45;100.00;97043.53;1720959;83;21053;-87
2022/09/17 03:42:12;;;;;;;14.00;6.35;;;;;;;7.43;100.00;97044.33;1720818;83;20978;-87
2022/09/17 03:44:38;;;;;;;8.53;5.28;;;;;;;7.35;100.00;97039.03;1721101;83;21437;-88
2022/09/17 03:47:04;;;;;;;10.68;5.95;;;;;;;7.33;100.00;97039.29;1720982;83;21093;-87
2022/09/17 03:49:30;;;;;;;9.48;6.83;;;;;;;7.31;100.00;97036.63;1721005;83;21056;-88
2022/09/17 03:51:56;;;;;;;9.78;6.17;;;;;;;7.25;100.00;97032.36;1720960;83;20953;-85
2022/09/17 03:54:22;;;;;;;6.90;5.03;;;;;;;7.20;100.00;97034.56;1721082;83;20977;-86
2022/09/17 03:56:48;;;;;;;10.18;5.75;;;;;;;7.16;100.00;97030.00;1721047;81;20894;-85
2022/09/17 03:59:14;;;;;;;7.62;5.33;;;;;;;7.13;100.00;97034.62;1720723;83;21025;-88
2022/09/17 04:01:40;;;;;;;8.18;5.97;;;;;;;7.11;100.00;97021.44;1721146;83;21557;-88
2022/09/17 04:04:06;;;;;;;10.95;6.00;;;;;;;7.12;100.00;97028.97;1720720;83;20898;-86
2022/09/17 04:06:32;;;;;;;12.13;6.25;;;;;;;7.10;100.00;97026.56;1721105;83;21041;-85
2022/09/17 04:08:59;;;;;;;9.48;5.30;;;;;;;7.04;100.00;97023.64;1720879;83;21169;-86
2022/09/17 04:11:26;;;;;;;9.20;5.83;;;;;;;7.01;100.00;97026.91;1720966;83;21010;-88
2022/09/17 04:13:52;;;;;;;7.85;5.40;;;;;;;7.01;100.00;97030.94;1720684;83;21024;-88
2022/09/17 04:16:18;;;;;;;10.10;6.30;;;;;;;6.95;100.00;97026.13;1721151;83;20898;-88
2022/09/17 04:18:44;;;;;;;14.07;8.00;;;;;;;6.91;100.00;97025.60;1720746;83;20966;-85
2022/09/17 04:21:09;;;;;;;14.80;7.65;;;;;;;6.86;100.00;97022.42;1721035;83;20954;-85
2022/09/17 04:23:35;;;;;;;13.45;7.05;;;;;;;6.85;100.00;97038.31;1720790;83;21035;-85
2022/09/17 04:26:01;;;;;;;14.45;7.35;;;;;;;6.86;100.00;97048.00;1717908;83;21001;-85
2022/09/17 04:28:27;;;;;;;10.23;6.33;;;;;;;6.87;100.00;97042.88;1710769;83;20914;-88
2022/09/17 04:30:53;;;;;;;9.28;5.45;;;;;;;6.85;100.00;97033.48;1711009;83;21584;-88
2022/09/17 04:33:19;;;;;;;10.65;5.62;;;;;;;6.91;100.00;97039.06;1710673;83;20891;-87
2022/09/17 04:35:45;;;;;;;9.80;6.72;;;;;;;6.86;100.00;97034.53;1711122;83;21735;-85
2022/09/17 04:38:17;;;;;;;13.98;5.47;;;;;;;6.87;100.00;97041.53;1710673;83;20863;-88
2022/09/17 04:40:40;;;;;;;11.05;7.30;;;;;;;6.81;100.00;97036.45;1710108;83;21015;-87
2022/09/17 04:43:06;;;;;;;9.50;6.30;;;;;;;6.77;100.00;97034.87;1710803;83;21014;-86
2022/09/17 04:45:32;;;;;;;12.60;6.30;;;;;;;6.72;100.00;97034.34;1711074;83;21026;-88
2022/09/17 04:47:58;;;;;;;9.43;6.37;;;;;;;6.70;100.00;97033.82;1710796;83;21053;-85
2022/09/17 04:50:24;;;;;;;11.20;6.42;;;;;;;6.67;100.00;97022.27;1711082;83;20903;-88
2022/09/17 04:52:50;;;;;;;10.78;6.22;;;;;;;6.72;100.00;97020.08;1710639;83;20965;-87
2022/09/17 04:55:16;;;;;;;14.75;10.05;;;;;;;6.77;100.00;97021.41;1710908;83;20934;-85
2022/09/17 04:57:50;;;;;;;9.03;6.58;;;;;;;6.81;100.00;97027.02;1710965;83;20903;-86
2022/09/17 05:00:17;;;;;;;9.33;6.50;;;;;;;6.81;100.00;97021.09;1711051;83;21099;-89
2022/09/17 05:02:44;;;;;;;9.35;6.40;;;;;;;6.78;100.00;97013.58;1711039;82;21431;-85
2022/09/17 05:05:10;;;;;;;24.32;19.35;;;;;;;6.83;100.00;97020.27;1685338;83;21030;-89
2022/09/17 05:07:39;;;;;;;13.25;7.80;;;;;;;6.86;100.00;97027.00;1710959;83;21585;-88
2022/09/17 05:10:06;;;;;;;9.08;5.50;;;;;;;6.89;100.00;97027.23;1711062;83;21049;-88
2022/09/17 05:12:32;;;;;;;9.70;6.15;;;;;;;6.92;100.00;97026.70;1711158;82;21115;-88
2022/09/17 05:14:58;;;;;;;15.58;7.45;;;;;;;7.00;100.00;97034.15;1711050;83;21605;-88
2022/09/17 05:17:24;;;;;;;9.40;6.92;;;;;;;7.10;100.00;97034.64;1711022;83;20882;-85
2022/09/17 05:19:52;;;;;;;10.58;6.85;;;;;;;7.14;100.00;97035.67;1711231;83;20915;-85
2022/09/17 05:22:19;;;;;;;10.53;6.47;;;;;;;7.17;100.00;97036.45;1711192;83;21002;-88
2022/09/17 05:24:44;;;;;;;14.13;6.70;;;;;;;7.22;100.00;97028.89;1711123;83;21131;-88
2022/09/17 05:27:10;;;;;;;10.55;6.58;;;;;;;7.27;100.00;97029.66;1719158;83;21647;-87
2022/09/17 05:29:36;;;;;;;13.65;7.78;;;;;;;7.33;100.00;97029.05;1721773;83;20913;-87
2022/09/17 05:32:03;;;;;;;9.70;6.70;;;;;;;7.38;100.00;97025.52;1721397;83;21520;-86
2022/09/17 05:34:29;;;;;;;9.33;5.60;;;;;;;7.44;100.00;97023.86;1721390;83;21581;-85
2022/09/17 05:36:55;;;;;;;7.92;5.12;;;;;;;7.54;100.00;97018.91;1721348;83;21150;-88
2022/09/17 05:39:24;;;;;;;9.18;5.62;;;;;;;7.60;100.00;97029.89;1721320;83;20981;-85
2022/09/17 05:41:49;;;;;;;9.00;5.75;;;;;;;7.66;100.00;97027.95;1721235;83;21030;-85
2022/09/17 05:44:15;;;;;;;8.43;5.95;;;;;;;7.74;100.00;97032.73;1728614;81;20908;-86
2022/09/17 05:46:41;;;;;;;19.37;12.98;;;;;;;7.81;100.00;97035.36;1721469;83;20979;-88
2022/09/17 05:49:06;;;;;;;15.85;7.83;;;;;;;7.88;100.00;97035.02;1721155;83;21550;-88
2022/09/17 05:51:32;;;;;;;12.37;7.62;;;;;;;7.95;100.00;97034.14;1721350;83;21609;-87
2022/09/17 05:53:58;;;;;;;14.30;8.23;;;;;;;8.01;100.00;97025.43;1721006;83;20895;-87
2022/09/17 05:56:24;;;;;;;11.88;8.68;;;;;;;8.04;100.00;97021.63;1721413;83;21097;-88
2022/09/17 05:58:55;;;;;;;13.48;8.65;;;;;;;8.15;100.00;97042.55;1721102;83;20919;-88
2022/09/17 06:01:22;;;;;;;18.80;13.70;;;;;;;8.30;100.00;97042.38;1721395;83;21255;-88
2022/09/17 06:03:48;;;;;;;16.32;13.18;;;;;;;8.30;100.00;97022.68;1721226;82;21416;-86
2022/09/17 06:06:14;;;;;;;14.30;11.50;;;;;;;8.51;100.00;97021.34;1721313;83;20903;-88
2022/09/17 06:08:40;;;;;;;11.05;8.10;;;;;;;8.70;100.00;97011.90;1721154;83;20879;-85
2022/09/17 06:11:06;;;;;;;20.32;10.63;;;;;;;8.75;100.00;97011.84;1721442;83;21565;-86
2022/09/17 06:13:32;;;;;;;14.25;10.00;;;;;;;8.89;100.00;97024.88;1721222;83;21058;-87
2022/09/17 06:15:58;;;;;;;14.75;9.53;;;;;;;9.04;100.00;97018.42;1721811;83;21022;-86
2022/09/17 06:18:24;;;;;;;10.35;7.80;;;;;;;9.17;100.00;97018.24;1721295;83;20990;-88
2022/09/17 06:21:00;;;;;;;10.05;8.15;;;;;;;9.35;100.00;97016.05;1721243;83;20935;-88
2022/09/17 06:23:26;;;;;;;14.30;11.45;;;;;;;9.47;100.00;97016.92;1720943;82;22272;-87
2022/09/17 06:25:57;;;;;;;13.10;8.60;;;;;;;9.58;100.00;97018.38;1721348;82;21113;-86
2022/09/17 06:28:26;;;;;;;13.98;8.75;;;;;;;9.70;100.00;97025.45;1721215;82;21537;-88
2022/09/17 06:30:53;;;;;;;11.95;8.25;;;;;;;9.73;100.00;97022.14;1721063;82;21021;-86
2022/09/17 06:33:20;;;;;;;14.93;8.95;;;;;;;9.78;100.00;97026.12;1692167;83;21057;-86
2022/09/17 06:35:46;;;;;;;12.18;8.93;;;;;;;9.86;100.00;97011.91;1721324;83;21013;-88
2022/09/17 06:38:12;;;;;;;14.78;9.98;;;;;;;9.99;100.00;97009.49;1721149;83;21314;-86
2022/09/17 06:40:38;;;;;;;15.13;11.10;;;;;;;10.16;100.00;97013.20;1721303;82;21057;-88
2022/09/17 06:43:04;;;;;;;18.85;10.48;;;;;;;10.37;100.00;97012.84;1692500;83;20890;-86
2022/09/17 06:45:30;;;;;;;8.63;5.58;;;;;;;10.55;100.00;97015.17;1721491;83;21555;-88
2022/09/17 06:47:56;;;;;;;11.68;6.90;;;;;;;10.68;100.00;97004.84;1721041;83;20946;-88
2022/09/17 06:50:22;;;;;;;9.45;5.10;;;;;;;10.75;100.00;97006.59;1721551;83;21796;-85
2022/09/17 06:52:49;;;;;;;10.08;6.10;;;;;;;10.78;100.00;97007.91;1721108;82;20989;-86
2022/09/17 06:55:15;;;;;;;16.82;6.70;;;;;;;10.83;100.00;97015.36;1692698;83;20971;-86
2022/09/17 06:57:41;;;;;;;11.80;6.47;;;;;;;10.85;100.00;97008.27;1721297;83;21091;-86
2022/09/17 07:00:09;;;;;;;30.43;18.70;;;;;;;10.83;100.00;97004.52;1724416;81;20963;-88
2022/09/17 07:02:35;;;;;;;36.88;22.30;;;;;;;10.90;100.00;97009.52;1724960;81;21059;-88
2022/09/17 07:05:01;;;;;;;28.83;15.30;;;;;;;10.97;100.00;97015.33;1722248;83;21001;-88
2022/09/17 07:07:27;;;;;;;20.32;12.00;;;;;;;11.08;100.00;97023.47;1737469;80;22514;-86
2022/09/17 07:09:53;;;;;;;18.35;12.03;;;;;;;11.25;100.00;97024.95;1741841;82;21391;-86
2022/09/17 07:12:20;;;;;;;8.18;5.78;;;;;;;11.32;100.00;97020.46;1732866;80;20870;-86
2022/09/17 07:14:49;;;;;;;8.15;5.15;;;;;;;11.45;100.00;97025.56;1726318;83;21247;-86
2022/09/17 07:17:15;;;;;;;10.45;5.55;;;;;;;11.59;100.00;97036.59;1727031;83;21546;-88
2022/09/17 07:19:41;;;;;;;11.30;5.97;;;;;;;11.69;100.00;97034.73;1744512;82;20954;-88
2022/09/17 07:22:07;;;;;;;14.50;6.12;;;;;;;11.88;100.00;97039.45;1782160;79;20904;-86
2022/09/17 07:24:33;;;;;;;7.47;5.50;;;;;;;12.02;100.00;97039.34;1782322;80;21004;-88
2022/09/17 07:27:00;;;;;;;9.85;5.53;;;;;;;12.27;100.00;97040.00;1779496;80;21194;-86
2022/09/17 07:29:26;;;;;;;8.20;4.83;;;;;;;12.87;100.00;97045.35;1782148;80;20965;-88
2022/09/17 07:31:53;;;;;;;9.40;4.90;;;;;;;13.22;99.44;97057.09;1782412;80;21472;-86
2022/09/17 07:34:19;;;;;;;9.33;7.50;;;;;;;13.32;99.65;97063.56;1778032;80;21016;-88
2022/09/17 07:36:45;;;;;;;8.63;6.28;;;;;;;13.45;99.16;97071.34;1779038;80;20981;-86
2022/09/17 07:39:12;;;;;;;10.13;6.12;;;;;;;13.44;98.43;97067.82;1775552;79;21166;-86
2022/09/17 07:41:39;;;;;;;6.17;5.33;;;;;;;13.48;98.06;97062.52;1793621;79;20987;-87
2022/09/17 07:44:08;;;;;;;8.23;5.80;;;;;;;13.52;97.28;97060.21;1793357;79;21021;-86
2022/09/17 07:46:34;;;;;;;7.00;4.67;;;;;;;13.64;98.37;97057.39;1772487;80;21062;-88
2022/09/17 07:49:01;;;;;;;4.33;3.37;;;;;;;13.75;97.50;97063.52;1778366;79;21009;-88
2022/09/17 07:51:29;;;;;;;5.05;3.20;;;;;;;13.82;94.48;97054.88;1773414;80;21024;-89
2022/09/17 07:53:57;;;;;;;8.98;3.17;;;;;;;13.57;91.10;97052.98;1773274;80;21009;-88
2022/09/17 07:56:23;;;;;;;5.67;3.05;;;;;;;13.65;94.57;97052.98;1778663;80;21040;-86
2022/09/17 07:58:49;;;;;;;6.80;3.35;;;;;;;13.72;94.59;97046.48;1780835;79;21001;-89
2022/09/17 08:01:15;;;;;;;6.22;3.30;;;;;;;13.78;94.96;97047.92;1782394;80;21434;-86
2022/09/17 08:03:42;;;;;;;4.65;2.80;;;;;;;13.85;94.63;97044.71;1779925;80;21100;-86
2022/09/17 08:06:11;;;;;;;4.15;2.85;;;;;;;13.87;94.07;97040.30;1751653;80;21024;-89
2022/09/17 08:08:38;;;;;;;6.53;2.80;;;;;;;13.86;93.34;97045.51;1774884;80;21007;-88
2022/09/17 08:11:08;;;;;;;4.65;3.00;;;;;;;13.97;93.82;97044.03;1776202;80;21040;-86
2022/09/17 08:13:34;;;;;;;5.85;3.20;;;;;;;13.99;90.50;97046.66;1781390;79;21028;-88
2022/09/17 08:16:02;;;;;;;4.83;3.12;;;;;;;14.08;92.85;97050.15;1786781;79;21190;-88
2022/09/17 08:18:28;;;;;;;4.40;2.35;;;;;;;14.20;90.83;97049.48;1794616;79;21001;-87
2022/09/17 08:20:58;;;;;;;5.55;3.22;;;;;;;14.45;91.80;97051.08;1768096;79;20888;-88
2022/09/17 08:23:26;;;;;;;7.15;2.12;;;;;;;14.82;90.81;97057.63;1780671;80;21472;-86
2022/09/17 08:25:53;;;;;;;3.85;2.40;;;;;;;14.84;89.66;97054.00;1781722;79;21008;-86
2022/09/17 08:28:20;;;;;;;4.80;2.72;;;;;;;15.02;82.55;97054.69;1775954;79;21291;-88
2022/09/17 08:30:47;;;;;;;9.85;5.53;;;;;;;14.80;84.10;97056.61;1789911;79;22432;-86
2022/09/17 08:33:13;;;;;;;7.25;3.70;;;;;;;14.89;81.67;97062.80;1726719;80;21021;-87
2022/09/17 08:35:39;;;;;;;7.75;3.75;;;;;;;15.07;82.93;97055.87;1726126;80;21032;-87
2022/09/17 08:38:06;;;;;;;5.17;2.58;;;;;;;15.42;80.62;97044.11;1777220;79;20984;-86
2022/09/17 08:40:35;;;;;;;3.62;1.87;;;;;;;15.66;78.15;97043.45;1782936;79;21184;-86
2022/09/17 08:43:01;;;;;;;5.12;2.30;;;;;;;15.73;76.75;97039.05;1748731;80;21004;-88
2022/09/17 08:45:28;;;;;;;3.05;2.22;;;;;;;15.89;74.03;97044.64;1778393;79;20877;-86
2022/09/17 08:48:01;;;;;;;4.87;2.70;;;;;;;15.54;75.76;97042.78;1781423;79;20991;-88
2022/09/17 08:50:31;;;;;;;4.87;3.58;;;;;;;15.52;77.72;97043.70;1770557;80;21028;-88
2022/09/17 08:53:42;;;;;;;4.90;2.45;;;;;;;15.82;77.90;97044.98;1792371;78;21928;-88
2022/09/17 08:56:14;;;;;;;4.42;3.10;;;;;;;16.07;77.29;97041.18;1797154;79;20997;-85
2022/09/17 08:58:52;;;;;;;8.98;4.92;;;;;;;16.20;78.10;97029.69;1779496;79;20976;-86
2022/09/17 09:01:43;;;;;;;8.35;3.60;;;;;;;15.98;75.39;97026.25;1789357;79;20980;-86
2022/09/17 09:04:30;;;;;;;10.00;3.08;;;;;;;15.95;74.88;97021.44;1780722;79;21031;-88
2022/09/17 09:07:16;;;;;;;5.33;2.25;;;;;;;15.70;74.32;97025.24;1780792;80;21421;-88
2022/09/17 09:09:52;;;;;;;2.67;1.85;;;;;;;15.63;72.76;97028.52;1773676;79;21471;-88
2022/09/17 09:12:25;;;;;;;6.05;2.10;;;;;;;15.43;74.69;97023.30;1789871;79;21053;-86
2022/09/17 09:15:07;;;;;;;13.98;3.05;;;;;;;15.41;73.59;97013.86;1783758;79;21020;-88
2022/09/17 09:17:43;;;;;;;6.08;1.90;;;;;;;15.40;73.83;97011.70;1774492;80;21102;-86
2022/09/17 09:20:31;;;;;;;2.27;1.92;;;;;;;15.50;74.65;97016.73;1771972;79;21216;-86
2022/09/17 09:22:58;;;;;;;3.42;1.70;;;;;;;15.62;73.18;97011.91;1781827;79;28114;-88
2022/09/17 09:25:52;;;;;;;3.35;1.92;;;;;;;15.58;71.33;97021.09;1782676;79;21041;-86
2022/09/17 09:28:41;;;;;;;5.20;2.42;;;;;;;15.55;72.89;97028.56;1754830;80;21048;-86
2022/09/17 09:31:50;;;;;;;4.50;1.57;;;;;;;15.63;72.47;97033.18;1779780;79;21488;-86
2022/09/17 09:34:16;;;;;;;5.65;1.75;;;;;;;15.87;72.99;97031.09;1778419;80;21195;-88
2022/09/17 09:36:43;;;;;;;2.62;1.77;;;;;;;16.06;73.41;97040.38;1778176;79;20877;-88
2022/09/17 09:39:24;;;;;;;6.42;2.00;;;;;;;16.18;72.67;97028.66;1768742;80;21429;-88
2022/09/17 09:42:00;;;;;;;5.15;2.10;;;;;;;16.21;69.29;97024.45;1777853;80;20993;-87
2022/09/17 09:44:26;;;;;;;4.45;1.60;;;;;;;16.26;69.81;97029.70;1778773;80;21444;-89
2022/09/17 09:47:19;;;;;;;2.75;1.52;;;;;;;16.29;68.17;97031.74;1776119;80;21907;-86
2022/09/17 09:50:07;;;;;;;2.98;1.62;;;;;;;16.42;69.74;97029.83;1779146;80;20974;-88
2022/09/17 09:52:58;;;;;;;7.42;2.20;;;;;;;16.46;68.81;97030.16;1765888;80;21005;-88
2022/09/17 09:56:03;;;;;;;3.33;1.70;;;;;;;16.59;69.20;97039.17;1782557;80;21102;-89
2022/09/17 09:58:38;;;;;;;5.10;1.95;;;;;;;16.77;68.54;97041.13;1782140;80;21075;-87
2022/09/17 10:01:14;;;;;;;5.35;1.85;;;;;;;16.87;67.63;97048.30;1782177;80;21819;-88
2022/09/17 10:03:42;;;;;;;2.35;1.40;;;;;;;16.93;68.07;97046.70;1775871;80;21551;-87
2022/09/17 10:06:09;;;;;;;3.90;1.80;;;;;;;17.07;68.15;97043.02;1777126;80;21029;-88
2022/09/17 10:08:40;;;;;;;3.37;2.00;;;;;;;17.19;66.85;97046.53;1777093;80;21080;-89
2022/09/17 10:11:14;;;;;;;6.58;2.42;;;;;;;16.91;64.04;97041.55;1779101;80;21480;-86
2022/09/17 10:13:40;;;;;;;3.45;1.50;;;;;;;16.78;65.36;97041.35;1774235;80;21166;-86
2022/09/17 10:16:23;;;;;;;4.90;1.90;;;;;;;16.77;67.12;97036.45;1781653;80;21638;-88
2022/09/17 10:19:04;;;;;;;5.60;1.82;;;;;;;16.94;67.06;97031.30;1782264;80;20997;-89
2022/09/17 10:21:40;;;;;;;7.25;1.50;;;;;;;16.98;66.99;97034.93;1776536;80;21461;-87
2022/09/17 10:24:26;;;;;;;2.25;1.57;;;;;;;17.13;65.54;97034.80;1781731;80;20984;-89
2022/09/17 10:27:01;;;;;;;3.22;2.20;;;;;;;17.14;63.02;97029.55;1781853;80;21556;-86
2022/09/17 10:29:27;;;;;;;2.33;1.42;;;;;;;17.08;63.25;97039.13;1779023;79;21002;-88
2022/09/17 10:31:55;;;;;;;3.92;1.40;;;;;;;17.04;62.71;97034.93;1774998;80;20997;-87
2022/09/17 10:34:26;;;;;;;2.55;1.70;;;;;;;16.98;63.84;97034.93;1773444;79;21411;-86
2022/09/17 10:36:51;;;;;;;4.53;1.45;;;;;;;17.01;63.50;97033.47;1790741;79;21000;-88
2022/09/17 10:39:24;;;;;;;3.55;1.37;;;;;;;16.86;61.29;97026.19;1767383;79;21294;-89
2022/09/17 10:42:02;;;;;;;6.15;2.42;;;;;;;16.63;61.41;97028.56;1775129;79;21438;-89
2022/09/17 10:44:33;;;;;;;4.28;1.57;;;;;;;16.52;60.72;97030.16;1817967;79;21243;-86
2022/09/17 10:47:15;;;;;;;3.58;1.60;;;;;;;16.30;62.47;97037.44;1818642;78;20940;-88
2022/09/17 10:49:49;;;;;;;6.22;2.00;;;;;;;16.34;64.22;97035.63;1814778;79;20952;-89
2022/09/17 10:52:33;;;;;;;2.55;1.75;;;;;;;16.29;64.17;97034.48;1780277;80;21846;-89
2022/09/17 10:55:26;;;;;;;3.90;2.05;;;;;;;16.22;64.75;97034.23;1777428;80;21007;-87
2022/09/17 10:58:02;;;;;;;3.60;1.70;;;;;;;16.13;64.33;97034.34;1777088;80;21016;-86
2022/09/17 11:00:56;;;;;;;7.15;2.10;;;;;;;15.88;65.03;97043.05;1775223;80;21000;-89
2022/09/17 11:03:52;;;;;;;3.62;1.87;;;;;;;15.58;64.99;97047.03;1776748;80;21389;-88
2022/09/17 11:06:49;;;;;;;2.90;1.62;;;;;;;15.28;66.67;97051.20;1736427;80;20993;-87
2022/09/17 11:09:39;;;;;;;3.90;1.62;;;;;;;15.02;67.46;97050.03;1776502;80;21432;-89
2022/09/17 11:12:40;;;;;;;3.95;1.80;;;;;;;14.88;67.74;97046.77;1776847;80;21495;-88
2022/09/17 11:15:35;;;;;;;6.85;3.02;;;;;;;14.88;68.55;97049.50;1776481;80;21027;-86
2022/09/17 11:18:31;;;;;;;7.65;3.60;;;;;;;14.88;69.38;97047.57;1776148;80;20983;-89
2022/09/17 11:21:20;;;;;;;7.22;5.22;;;;;;;14.83;69.21;97049.69;1775127;80;21821;-87
2022/09/17 11:23:58;;;;;;;9.48;5.50;;;;;;;14.87;68.43;97052.80;1780645;80;22061;-86
2022/09/17 11:26:51;;;;;;;3.62;2.87;;;;;;;14.90;68.58;97056.22;1782058;80;21021;-86
2022/09/17 11:29:51;;;;;;;4.22;2.10;;;;;;;14.84;68.94;97049.34;1781660;80;21024;-86
2022/09/17 11:32:48;;;;;;;6.25;2.80;;;;;;;14.99;69.31;97049.34;1780916;80;21515;-88
2022/09/17 11:35:26;;;;;;;3.15;2.20;;;;;;;15.04;69.45;97048.33;1782906;80;21859;-86
2022/09/17 11:38:09;;;;;;;3.47;2.00;;;;;;;15.02;69.42;97058.78;1783223;80;20871;-86
2022/09/17 11:40:46;;;;;;;6.12;1.60;;;;;;;14.75;67.78;97062.23;1782919;80;22296;-86
2022/09/17 11:43:35;;;;;;;2.90;2.10;;;;;;;14.57;67.91;97066.98;1752430;81;20992;-86
2022/09/17 11:46:15;;;;;;;6.05;2.80;;;;;;;14.58;69.13;97065.05;1752282;81;20897;-86
2022/09/17 11:48:56;;;;;;;3.37;2.00;;;;;;;14.67;69.34;97057.06;1749790;80;21322;-86
2022/09/17 11:51:37;;;;;;;3.55;2.20;;;;;;;14.95;69.95;97050.58;1752330;81;20965;-86
2022/09/17 11:54:07;;;;;;;3.62;2.20;;;;;;;15.18;69.53;97048.88;1752131;82;20921;-86